Adin, California
Current Conditions -  °F | °C
As of 12:55 AM on Thursday 23 Oct 2014 (Local Time) from KAAT Reporting Station
Overcast Overcast  
Wind Chill: 50°   Ceiling: 5500
Heat Index: 50°   Visibility: 10mi
Dew Point: 41°   Wind: 5mph
Humidity: 71%   Direction: 210°SSW
Pressure: 30.08"   Gusts: NA
Location:  41.19°N, 120.95°W
Report Text: KAAT 230755Z AUTO 21004KT 10SM FEW038 SCT047 OVC055 10/05 A3008 RMK AO2 RAB16E33 SLP164 P0000 T01000050 401440000
Loading
Personal Weather Stations






























Interactive Weather Map
Tropical Storm Tracking
New forecast layout! Learn more

10-Day Weather Forecast

Advertisements
Track Severe Weather on mobile